Largo — PFNC — position and weather

sailwx.info

Track history (hours):
 
Tides and Currents Weather Stations Pressure Air Temp Water Temp Dewpoint Dewpoint Depression Visibility Wind Speed Wind Dir Waves Ship Positions

Largo

Last reported at 2017-Aug-23 18:11 UTC. Time now 2017-Aug-24 03:09 UTC.
Position N 39°58' E 000°06'.

Length 91 m; draft 5.4 m.

Type: Cargo ship. MMSI: 245645000.

Date/timePositionNaut miles runAvg speedWind from/ knotsBaromVisibWave heightAir tempDewpointWater temp
2017-Aug-23 18:11N 39°58' E 000°06'5 6.2
2017-Aug-23 17:18N 39°53' E 000°07'6 8.1
2017-Aug-23 16:33N 39°47' E 000°09'0 8.2
2017-Aug-23 16:30N 39°47' E 000°09'5 8.8
2017-Aug-23 15:59N 39°42' E 000°10'33 8.5
2017-Aug-23 12:07N 39°10' E 000°19'2 8.6
2017-Aug-23 11:50N 39°08' E 000°20'3 8.7
2017-Aug-23 11:27N 39°05' E 000°21'10 8.6
2017-Aug-23 10:14N 38°54' E 000°24'2 8.6
2017-Aug-23 10:00N 38°52' E 000°25'4 8.8
2017-Aug-23 09:30N 38°48' E 000°25'5 8.7
2017-Aug-23 08:54N 38°43' E 000°27'3 8.1
2017-Aug-23 08:30N 38°40' E 000°26'4 8.7
2017-Aug-23 08:00N 38°36' E 000°23'4 8.8
2017-Aug-23 07:30N 38°33' E 000°20'4 8.7
2017-Aug-23 07:00N 38°29' E 000°17'4 8.7
2017-Aug-23 06:30N 38°25' E 000°13'4 8.7
2017-Aug-23 06:00N 38°22' E 000°10'4 8.5
2017-Aug-23 05:29N 38°18' E 000°07'4 8.5
2017-Aug-23 05:00N 38°14' E 000°05'4 8.6
2017-Aug-23 04:30N 38°11' E 000°02'4 8.6
2017-Aug-23 04:00N 38°08' W 000°02'4 8.6
2017-Aug-23 03:30N 38°04' W 000°05'4 8.6
2017-Aug-23 03:00N 38°00' W 000°08'4 8.7
2017-Aug-23 02:30N 37°57' W 000°11'4 8.7
2017-Aug-23 02:00N 37°53' W 000°14'4 8.6
2017-Aug-23 01:30N 37°50' W 000°17'4 8.6
2017-Aug-23 01:00N 37°46' W 000°20'4 8.6
2017-Aug-23 00:30N 37°42' W 000°23'4 8.6
2017-Aug-23 00:00N 37°39' W 000°26'4 8.6
2017-Aug-22 23:30N 37°35' W 000°29'4 8.7
2017-Aug-22 23:00N 37°32' W 000°32'5 8.2
2017-Aug-22 22:26N 37°32' W 000°38'9 9.2
2017-Aug-22 21:25N 37°32' W 000°50'2 0.1
2017-Aug-21 18:13N 37°31' W 000°52'310.3
2017-Aug-21 17:56N 37°30' W 000°49'410.3
2017-Aug-21 17:30N 37°28' W 000°43'10310.0
2017-Aug-21 07:15N 36°41' E 001°11'11 0.4
2017-Aug-20 00:42N 36°32' E 001°19'0 0.0
2017-Aug-19 19:59N 36°32' E 001°19'0 0.0
2017-Aug-19 16:41N 36°32' E 001°19'0 0.0
2017-Aug-19 16:30N 36°32' E 001°19'1 0.1
2017-Aug-19 02:29N 36°31' E 001°18'0 0.0
2017-Aug-19 01:59N 36°31' E 001°18'0 0.0
2017-Aug-19 01:29N 36°31' E 001°18'0 0.0
2017-Aug-18 23:53N 36°31' E 001°18'0 0.0
2017-Aug-18 20:15N 36°31' E 001°18'0 0.0
2017-Aug-18 19:44N 36°31' E 001°18'0 0.0
2017-Aug-18 19:29N 36°31' E 001°18'0 0.0
2017-Aug-18 18:58N 36°31' E 001°18'0 0.0
2017-Aug-18 17:41N 36°31' E 001°18'0 0.0
2017-Aug-18 17:26N 36°31' E 001°18'0 0.0
2017-Aug-18 16:59N 36°31' E 001°18'0 0.0
2017-Aug-18 16:26N 36°31' E 001°18'27 3.0
2017-Aug-18 07:29N 36°53' E 000°57'9 8.1
2017-Aug-18 06:20N 37°00' E 000°49'3 8.2
2017-Aug-18 06:00N 37°02' E 000°47'4 8.2
2017-Aug-18 05:30N 37°06' E 000°44'4 8.1
2017-Aug-18 05:01N 37°09' E 000°41'4 8.2
2017-Aug-18 04:31N 37°12' E 000°38'4 8.2
2017-Aug-18 04:01N 37°15' E 000°35'4 8.1
2017-Aug-18 03:31N 37°18' E 000°31'4 8.0
2017-Aug-18 03:01N 37°22' E 000°28'4 8.2
2017-Aug-18 02:30N 37°25' E 000°25'4 8.2
2017-Aug-18 02:00N 37°28' E 000°22'4 8.2
2017-Aug-18 01:30N 37°31' E 000°19'4 8.0
2017-Aug-18 01:00N 37°34' E 000°16'4 8.1
2017-Aug-18 00:27N 37°38' E 000°12'4 8.3
2017-Aug-17 23:59N 37°41' E 000°09'4 8.1
2017-Aug-17 23:30N 37°44' E 000°06'5 8.2
2017-Aug-17 22:51N 37°48' E 000°02'3 8.1
2017-Aug-17 22:30N 37°50' W 000°00'4 8.1
2017-Aug-17 22:00N 37°54' W 000°03'5 8.4
2017-Aug-17 21:25N 37°58' W 000°07'4 8.4
2017-Aug-17 20:59N 38°00' W 000°10'5 8.3
2017-Aug-17 20:27N 38°04' W 000°14'4 8.2
2017-Aug-17 19:57N 38°07' W 000°17'7 0.1
2017-Aug-15 16:35N 38°14' W 000°16'45 8.5
2017-Aug-15 11:17N 37°53' E 000°34'16 8.7
2017-Aug-15 09:24N 37°45' E 000°53'3 8.7
2017-Aug-15 09:00N 37°43' E 000°57'4 8.8
2017-Aug-15 08:30N 37°41' E 001°02'5 8.8
2017-Aug-15 07:58N 37°39' E 001°07'16 8.8
2017-Aug-15 06:09N 37°32' E 001°25'3 8.7
2017-Aug-15 05:51N 37°31' E 001°28'4 8.6
2017-Aug-15 05:26N 37°29' E 001°32'4 8.9
2017-Aug-15 04:59N 37°27' E 001°36'14 8.7
2017-Aug-15 03:22N 37°20' E 001°52'3 8.7
2017-Aug-15 03:00N 37°19' E 001°55'4 8.5
2017-Aug-15 02:30N 37°17' E 002°00'4 8.6
2017-Aug-15 02:00N 37°15' E 002°05'4 8.6
2017-Aug-15 01:29N 37°13' E 002°10'9 8.6
2017-Aug-15 00:28N 37°09' E 002°20'8 8.5
2017-Aug-14 23:28N 37°05' E 002°29'19 8.4
2017-Aug-14 21:16N 36°56' E 002°50'2 9.0
2017-Aug-14 21:00N 36°55' E 002°52'5 9.2
2017-Aug-14 20:30N 36°53' E 002°57'4 9.1
2017-Aug-14 20:00N 36°51' E 003°02'4 8.4
2017-Aug-14 19:30N 36°48' E 003°06'3 1.0
2017-Aug-14 16:10N 36°46' E 003°04'0 0.0
2017-Aug-14 15:58N 36°46' E 003°04'  
Track history (hours):
 
Tides and Currents Weather Stations Pressure Air Temp Water Temp Dewpoint Dewpoint Depression Visibility Wind Speed Wind Dir Waves Ship Positions

Largo

Last reported at 2017-Aug-23 18:11 UTC. Time now 2017-Aug-24 03:09 UTC.
Position N 39°58' E 000°06'.

Length 91 m; draft 5.4 m.

Type: Cargo ship. MMSI: 245645000.

Date/timePositionNaut miles runAvg speedWind from/ knotsBaromVisibWave heightAir tempDewpointWater temp
2017-Aug-23 18:11N 39°58' E 000°06'5 6.2
2017-Aug-23 17:18N 39°53' E 000°07'6 8.1
2017-Aug-23 16:33N 39°47' E 000°09'0 8.2
2017-Aug-23 16:30N 39°47' E 000°09'5 8.8
2017-Aug-23 15:59N 39°42' E 000°10'33 8.5
2017-Aug-23 12:07N 39°10' E 000°19'2 8.6
2017-Aug-23 11:50N 39°08' E 000°20'3 8.7
2017-Aug-23 11:27N 39°05' E 000°21'10 8.6
2017-Aug-23 10:14N 38°54' E 000°24'2 8.6
2017-Aug-23 10:00N 38°52' E 000°25'4 8.8
2017-Aug-23 09:30N 38°48' E 000°25'5 8.7
2017-Aug-23 08:54N 38°43' E 000°27'3 8.1
2017-Aug-23 08:30N 38°40' E 000°26'4 8.7
2017-Aug-23 08:00N 38°36' E 000°23'4 8.8
2017-Aug-23 07:30N 38°33' E 000°20'4 8.7
2017-Aug-23 07:00N 38°29' E 000°17'4 8.7
2017-Aug-23 06:30N 38°25' E 000°13'4 8.7
2017-Aug-23 06:00N 38°22' E 000°10'4 8.5
2017-Aug-23 05:29N 38°18' E 000°07'4 8.5
2017-Aug-23 05:00N 38°14' E 000°05'4 8.6
2017-Aug-23 04:30N 38°11' E 000°02'4 8.6
2017-Aug-23 04:00N 38°08' W 000°02'4 8.6
2017-Aug-23 03:30N 38°04' W 000°05'4 8.6
2017-Aug-23 03:00N 38°00' W 000°08'4 8.7
2017-Aug-23 02:30N 37°57' W 000°11'4 8.7
2017-Aug-23 02:00N 37°53' W 000°14'4 8.6
2017-Aug-23 01:30N 37°50' W 000°17'4 8.6
2017-Aug-23 01:00N 37°46' W 000°20'4 8.6
2017-Aug-23 00:30N 37°42' W 000°23'4 8.6
2017-Aug-23 00:00N 37°39' W 000°26'4 8.6
2017-Aug-22 23:30N 37°35' W 000°29'4 8.7
2017-Aug-22 23:00N 37°32' W 000°32'5 8.2
2017-Aug-22 22:26N 37°32' W 000°38'9 9.2
2017-Aug-22 21:25N 37°32' W 000°50'2 0.1
2017-Aug-21 18:13N 37°31' W 000°52'310.3
2017-Aug-21 17:56N 37°30' W 000°49'410.3
2017-Aug-21 17:30N 37°28' W 000°43'10310.0
2017-Aug-21 07:15N 36°41' E 001°11'11 0.4
2017-Aug-20 00:42N 36°32' E 001°19'0 0.0
2017-Aug-19 19:59N 36°32' E 001°19'0 0.0
2017-Aug-19 16:41N 36°32' E 001°19'0 0.0
2017-Aug-19 16:30N 36°32' E 001°19'1 0.1
2017-Aug-19 02:29N 36°31' E 001°18'0 0.0
2017-Aug-19 01:59N 36°31' E 001°18'0 0.0
2017-Aug-19 01:29N 36°31' E 001°18'0 0.0
2017-Aug-18 23:53N 36°31' E 001°18'0 0.0
2017-Aug-18 20:15N 36°31' E 001°18'0 0.0
2017-Aug-18 19:44N 36°31' E 001°18'0 0.0
2017-Aug-18 19:29N 36°31' E 001°18'0 0.0
2017-Aug-18 18:58N 36°31' E 001°18'0 0.0
2017-Aug-18 17:41N 36°31' E 001°18'0 0.0
2017-Aug-18 17:26N 36°31' E 001°18'0 0.0
2017-Aug-18 16:59N 36°31' E 001°18'0 0.0
2017-Aug-18 16:26N 36°31' E 001°18'27 3.0
2017-Aug-18 07:29N 36°53' E 000°57'9 8.1
2017-Aug-18 06:20N 37°00' E 000°49'3 8.2
2017-Aug-18 06:00N 37°02' E 000°47'4 8.2
2017-Aug-18 05:30N 37°06' E 000°44'4 8.1
2017-Aug-18 05:01N 37°09' E 000°41'4 8.2
2017-Aug-18 04:31N 37°12' E 000°38'4 8.2
2017-Aug-18 04:01N 37°15' E 000°35'4 8.1
2017-Aug-18 03:31N 37°18' E 000°31'4 8.0
2017-Aug-18 03:01N 37°22' E 000°28'4 8.2
2017-Aug-18 02:30N 37°25' E 000°25'4 8.2
2017-Aug-18 02:00N 37°28' E 000°22'4 8.2
2017-Aug-18 01:30N 37°31' E 000°19'4 8.0
2017-Aug-18 01:00N 37°34' E 000°16'4 8.1
2017-Aug-18 00:27N 37°38' E 000°12'4 8.3
2017-Aug-17 23:59N 37°41' E 000°09'4 8.1
2017-Aug-17 23:30N 37°44' E 000°06'5 8.2
2017-Aug-17 22:51N 37°48' E 000°02'3 8.1
2017-Aug-17 22:30N 37°50' W 000°00'4 8.1
2017-Aug-17 22:00N 37°54' W 000°03'5 8.4
2017-Aug-17 21:25N 37°58' W 000°07'4 8.4
2017-Aug-17 20:59N 38°00' W 000°10'5 8.3
2017-Aug-17 20:27N 38°04' W 000°14'4 8.2
2017-Aug-17 19:57N 38°07' W 000°17'7 0.1
2017-Aug-15 16:35N 38°14' W 000°16'45 8.5
2017-Aug-15 11:17N 37°53' E 000°34'16 8.7
2017-Aug-15 09:24N 37°45' E 000°53'3 8.7
2017-Aug-15 09:00N 37°43' E 000°57'4 8.8
2017-Aug-15 08:30N 37°41' E 001°02'5 8.8
2017-Aug-15 07:58N 37°39' E 001°07'16 8.8
2017-Aug-15 06:09N 37°32' E 001°25'3 8.7
2017-Aug-15 05:51N 37°31' E 001°28'4 8.6
2017-Aug-15 05:26N 37°29' E 001°32'4 8.9
2017-Aug-15 04:59N 37°27' E 001°36'14 8.7
2017-Aug-15 03:22N 37°20' E 001°52'3 8.7
2017-Aug-15 03:00N 37°19' E 001°55'4 8.5
2017-Aug-15 02:30N 37°17' E 002°00'4 8.6
2017-Aug-15 02:00N 37°15' E 002°05'4 8.6
2017-Aug-15 01:29N 37°13' E 002°10'9 8.6
2017-Aug-15 00:28N 37°09' E 002°20'8 8.5
2017-Aug-14 23:28N 37°05' E 002°29'19 8.4
2017-Aug-14 21:16N 36°56' E 002°50'2 9.0
2017-Aug-14 21:00N 36°55' E 002°52'5 9.2
2017-Aug-14 20:30N 36°53' E 002°57'4 9.1
2017-Aug-14 20:00N 36°51' E 003°02'4 8.4
2017-Aug-14 19:30N 36°48' E 003°06'3 1.0
2017-Aug-14 16:10N 36°46' E 003°04'0 0.0
2017-Aug-14 15:58N 36°46' E 003°04'  

Dump ship's entire track history